Riverdale, CA

11:10 AM PDT on May 23, 2017 (GMT -0700)
Lemoore Naval Air Station | | Change Station
Active Advisory: Hydrologic Statement

Elev 233 ft 36.33 °N, 119.95 °W | Updated 14 minutes ago

Clear
Clear
90 °F
Feels Like 90 °F
N
13
Wind Variable Wind from NNW

Today
High -- | Low -- °F
--% Chance of Precip.
Yesterday
High -- | Low -- °F
Precip. -- in
Pressure 29.90 in
Visibility 9.0 miles
Clouds Clear
Dew Point 46 °F
Humidity 22%
Rainfall 0.00 in
Snow Depth Not available.
5:47 AM 8:06 PM
Waning Crescent, 6% visible
METAR KNLC 231756Z 34011KT 9SM CLR 32/08 A2990 RMK AO2 SLP124 RH/21 T03220078 10322 20189 58005
Pressure 29.90 in
Visibility 9.0 miles
Clouds Clear
Dew Point 46 °F
Humidity 22%
Rainfall 0.00 in
Snow Depth Not available.
5:47 AM 8:06 PM
Waning Crescent, 6% visible
METAR KNLC 231756Z 34011KT 9SM CLR 32/08 A2990 RMK AO2 SLP124 RH/21 T03220078 10322 20189 58005

Get Your Daily Forecast Email!

Thanks for signing up!

Be on the lookout for a verification email in your inbox.

You'll start receiving severe weather alerts in your inbox..

×

10-Day Weather Forecast

Almanac

Astronomy

May. 23, 2017 Rise Set
Actual Time
Civil Twilight
Nautical Twilight
Astronomical Twilight
Moon
Length of Visible Light
Length of Day
Tomorrow will be .
, % of the Moon is Illuminated

Today's Extremes

State Highs State Lows

Community

WunderPhotos

Category 6

Welcome to Category 6. This is the collective home for Weather Underground's featured writeups by Dr. Jeff Masters (right), Bob Henson (left), Chris Burt, and other regular contributors.

Nearby

Air Quality

  Air Quality AQ Index Pollutant
Not available.

Snow Depth

Station Depth Elevation

Earthquake Activity

City Distance Mag. Time & Date
Minimum magnitude displayed is 2.5.

Coastal Water Temperatures

Place Temperature

Stations

Nearby Weather Stations

Station Location Temp. Windchill Dew Point Humidity Wind Precip. Elev Updated Type
                   

Watches & Warnings

Hydrologic Statement
Issued: 8:57 AM PDT May. 23, 2017 – National Weather Service

Forecast information for
Merced River at Merced River at Stevinson
* at 8:00 am Tuesday the stage was 64.1 feet
* forecast to rise to near 66.0 ft tomorrow evening with continued
rise expected.
* Flood stage 71.0 ft
* monitor stage 67.0 ft
* impact... near 65.0 feet, Hagaman Park along Highway 165 begins to
flood.


Lat... Lon 3743 12100 3742 12084 3732 12082 3728 12093